Time;durP1;ratioP1;P1;durP2;ratioP2;P2;SDS_P1;SDS_P2;PMS_P1;PMS_P2;Temp;Humidity;BMP_temperature;BMP_pressure;BME280_temperature;BME280_humidity;BME280_pressure;Samples;Min_cycle;Max_cycle;Signal;HPM_P1;HPM_P2
2022/11/13 02:36:56;;;;;;;;;;;12.70;99.90;;;;;;2620244;54;45475;-69
2022/11/13 02:39:26;;;;;;;;;;;7.00;99.90;;;;;;2622285;54;20466;-69
2022/11/13 02:41:55;;;;;;;;;;;6.90;99.90;;;;;;2621790;38;20351;-70
2022/11/13 02:44:25;;;;;;;;;;;6.90;99.90;;;;;;2621363;47;19947;-70
2022/11/13 02:46:54;;;;;;;;;;;6.80;99.90;;;;;;2626022;54;19943;-71
2022/11/13 02:49:24;;;;;;;;;;;6.80;99.90;;;;;;2629436;54;19998;-70
2022/11/13 02:51:56;;;;;;;;;;;6.80;99.90;;;;;;2629406;54;19950;-72
2022/11/13 02:54:26;;;;;;;;;;;6.80;99.90;;;;;;2629225;38;20348;-69
2022/11/13 02:56:55;;;;;;;;;;;6.80;99.90;;;;;;2621591;38;20364;-70
2022/11/13 02:59:25;;;;;;;;;;;6.80;99.90;;;;;;2620778;47;20011;-71
2022/11/13 03:01:54;;;;;;;;;;;6.80;99.90;;;;;;2620358;54;19943;-71
2022/11/13 03:04:24;;;;;;;;;;;6.70;99.90;;;;;;2620267;47;20459;-68
2022/11/13 03:09:24;;;;;;;;;;;6.60;99.90;;;;;;2633208;54;20010;-79
2022/11/13 03:11:54;;;;;;;;;;;6.70;99.90;;;;;;2633746;46;19949;-78
2022/11/13 03:14:23;;;;;;;;;;;6.60;99.90;;;;;;2634388;54;20581;-78
2022/11/13 03:16:53;;;;;;;;;;;6.60;99.90;;;;;;2634345;54;20010;-78
2022/11/13 03:19:23;;;;;;;;;;;6.60;99.90;;;;;;2634473;54;19933;-79
2022/11/13 03:21:53;;;;;;;;;;;6.60;99.90;;;;;;2633933;54;19939;-79
2022/11/13 03:24:26;;;;;;;;;;;6.80;99.90;;;;;;2634036;46;19933;-79
2022/11/13 03:26:56;;;;;;;;;;;6.80;99.90;;;;;;2634100;54;19942;-77
2022/11/13 03:29:26;;;;;;;;;;;6.60;99.90;;;;;;2633926;46;19943;-79
2022/11/13 03:31:55;;;;;;;;;;;6.60;99.90;;;;;;2633986;47;20513;-78
2022/11/13 03:34:25;;;;;;;;;;;6.70;99.90;;;;;;2632392;46;20631;-81
2022/11/13 03:36:55;;;;;;;;;;;6.60;99.90;;;;;;2630531;54;19943;-79
2022/11/13 03:39:27;;;;;;;;;;;6.60;99.90;;;;;;2632867;39;20622;-77
2022/11/13 03:41:57;;;;;;;;;;;6.60;99.90;;;;;;2630530;54;19957;-80
2022/11/13 03:44:26;;;;;;;;;;;6.60;99.90;;;;;;2631011;46;19946;-78
2022/11/13 03:46:56;;;;;;;;;;;6.50;99.90;;;;;;2630799;47;20657;-80
2022/11/13 03:49:26;;;;;;;;;;;6.60;99.90;;;;;;2630901;47;19943;-78
2022/11/13 03:51:55;;;;;;;;;;;6.50;99.90;;;;;;2631088;54;20019;-78
2022/11/13 03:54:28;;;;;;;;;;;6.60;99.90;;;;;;2630980;47;19949;-79
2022/11/13 03:56:57;;;;;;;;;;;6.50;99.90;;;;;;2631044;54;19942;-79
2022/11/13 03:59:27;;;;;;;;;;;6.50;99.90;;;;;;2631064;47;20002;-79
2022/11/13 04:01:56;;;;;;;;;;;6.50;99.90;;;;;;2631072;47;19966;-82
2022/11/13 04:04:26;;;;;;;;;;;6.50;99.90;;;;;;2630929;47;19939;-79
2022/11/13 04:06:56;;;;;;;;;;;6.50;99.90;;;;;;2630819;47;19947;-78
2022/11/13 04:09:28;;;;;;;;;;;6.50;99.90;;;;;;2630912;54;19950;-79
2022/11/13 04:11:58;;;;;;;;;;;6.50;99.90;;;;;;2630939;46;19949;-78
2022/11/13 04:14:27;;;;;;;;;;;6.50;99.90;;;;;;2630979;51;19927;-79
2022/11/13 04:16:57;;;;;;;;;;;6.40;99.90;;;;;;2630512;47;19983;-78
2022/11/13 04:19:27;;;;;;;;;;;7.70;99.90;;;;;;2630239;47;19943;-78
2022/11/13 04:21:56;;;;;;;;;;;6.80;99.90;;;;;;2630255;47;19943;-79
2022/11/13 04:24:29;;;;;;;;;;;6.40;99.90;;;;;;2630226;54;20824;-81
2022/11/13 04:26:59;;;;;;;;;;;6.40;99.90;;;;;;2630396;47;19943;-80
2022/11/13 04:29:29;;;;;;;;;;;6.80;99.90;;;;;;2630452;47;19939;-83
2022/11/13 04:31:59;;;;;;;;;;;6.40;99.90;;;;;;2637055;39;20802;-84
2022/11/13 04:34:29;;;;;;;;;;;6.40;99.90;;;;;;2630398;54;19938;-83
2022/11/13 04:36:59;;;;;;;;;;;6.40;99.90;;;;;;2630261;47;19927;-84
2022/11/13 04:39:33;;;;;;;;;;;6.40;99.90;;;;;;2630274;54;19934;-83
2022/11/13 04:44:44;;;;;;;;;;;6.40;99.90;;;;;;2629988;46;19943;-84
2022/11/13 04:47:14;;;;;;;;;;;6.40;99.90;;;;;;2629695;47;19942;-83
2022/11/13 04:49:44;;;;;;;;;;;6.30;99.90;;;;;;2630129;47;19926;-83
2022/11/13 04:52:14;;;;;;;;;;;6.30;99.90;;;;;;2629983;46;19934;-84
2022/11/13 04:54:47;;;;;;;;;;;6.40;99.90;;;;;;2630099;47;20604;-83
2022/11/13 04:57:17;;;;;;;;;;;6.30;99.90;;;;;;2630074;47;19949;-83
2022/11/13 04:59:47;;;;;;;;;;;6.30;99.90;;;;;;2630029;47;19942;-82
2022/11/13 05:02:17;;;;;;;;;;;6.30;99.90;;;;;;2630190;54;19933;-83
2022/11/13 05:04:54;;;;;;;;;;;6.30;99.90;;;;;;2630123;54;19933;-82
2022/11/13 05:07:30;;;;;;;;;;;6.20;99.90;;;;;;2630134;54;19962;-82
2022/11/13 05:10:03;;;;;;;;;;;6.20;99.90;;;;;;2630196;46;19949;-81
2022/11/13 05:12:32;;;;;;;;;;;6.20;99.90;;;;;;2629751;47;19943;-79
2022/11/13 05:15:03;;;;;;;;;;;6.40;99.90;;;;;;2630112;47;19949;-78
2022/11/13 05:17:33;;;;;;;;;;;6.20;99.90;;;;;;2629885;47;19950;-79
2022/11/13 05:20:02;;;;;;;;;;;6.10;99.90;;;;;;2630149;47;20746;-79
2022/11/13 05:22:32;;;;;;;;;;;6.60;99.90;;;;;;2629971;47;19943;-79
2022/11/13 05:25:04;;;;;;;;;;;6.10;99.90;;;;;;2630084;54;19943;-78
2022/11/13 05:27:34;;;;;;;;;;;6.10;99.90;;;;;;2630285;54;19958;-79
2022/11/13 05:30:04;;;;;;;;;;;6.10;99.90;;;;;;2630643;47;19956;-79
2022/11/13 05:32:34;;;;;;;;;;;6.10;99.90;;;;;;2630694;47;19943;-79
2022/11/13 05:35:03;;;;;;;;;;;6.10;99.90;;;;;;2630757;47;19927;-78
2022/11/13 05:37:33;;;;;;;;;;;6.70;99.90;;;;;;2630815;54;19943;-79
2022/11/13 05:40:05;;;;;;;;;;;6.10;99.90;;;;;;2630875;54;19949;-80
2022/11/13 05:42:35;;;;;;;;;;;6.10;99.90;;;;;;2630671;47;19927;-78
2022/11/13 05:45:06;;;;;;;;;;;6.10;99.90;;;;;;2630380;47;19934;-80
2022/11/13 05:47:36;;;;;;;;;;;6.10;99.90;;;;;;2630080;46;19942;-78
2022/11/13 05:50:06;;;;;;;;;;;6.10;99.90;;;;;;2630039;47;19942;-79
2022/11/13 05:52:36;;;;;;;;;;;6.10;99.90;;;;;;2629926;54;19942;-78
2022/11/13 05:55:10;;;;;;;;;;;6.10;99.90;;;;;;2629779;47;19957;-79
2022/11/13 05:57:40;;;;;;;;;;;6.10;99.90;;;;;;2629693;47;19949;-78
2022/11/13 06:00:11;;;;;;;;;;;6.10;99.90;;;;;;2629882;54;19949;-79
2022/11/13 06:02:41;;;;;;;;;;;6.10;99.90;;;;;;2629661;47;19951;-80
2022/11/13 06:05:12;;;;;;;;;;;6.10;99.90;;;;;;2629699;54;19945;-78
2022/11/13 06:07:42;;;;;;;;;;;6.10;99.90;;;;;;2629713;47;19968;-80
2022/11/13 06:10:15;;;;;;;;;;;6.20;99.90;;;;;;2629889;46;19927;-79
2022/11/13 06:12:45;;;;;;;;;;;6.10;99.90;;;;;;2629719;47;19926;-78
2022/11/13 06:15:19;;;;;;;;;;;6.00;99.90;;;;;;2629870;54;19934;-79
2022/11/13 06:17:48;;;;;;;;;;;6.00;99.90;;;;;;2629987;47;19927;-80
2022/11/13 06:20:18;;;;;;;;;;;6.00;99.90;;;;;;2629713;54;19927;-79
2022/11/13 06:22:48;;;;;;;;;;;6.00;99.90;;;;;;2629768;47;19970;-80
2022/11/13 06:25:20;;;;;;;;;;;6.00;99.90;;;;;;2629674;54;20022;-79
2022/11/13 06:27:50;;;;;;;;;;;6.00;99.90;;;;;;2632662;39;20332;-80
2022/11/13 06:30:20;;;;;;;;;;;6.00;99.90;;;;;;2629909;47;19933;-83
2022/11/13 06:32:53;;;;;;;;;;;6.00;99.90;;;;;;2629790;47;19981;-82
2022/11/13 06:35:24;;;;;;;;;;;6.00;99.90;;;;;;2629837;54;20007;-81
2022/11/13 06:37:55;;;;;;;;;;;7.10;99.90;;;;;;2629802;54;19954;-81
2022/11/13 06:40:28;;;;;;;;;;;6.10;99.90;;;;;;2629950;54;20411;-82
2022/11/13 06:42:57;;;;;;;;;;;6.00;99.90;;;;;;2629759;47;19943;-84
2022/11/13 06:45:27;;;;;;;;;;;6.00;99.90;;;;;;2636421;39;20566;-78
2022/11/13 06:47:58;;;;;;;;;;;6.00;99.90;;;;;;2629769;54;19946;-79
2022/11/13 06:50:27;;;;;;;;;;;6.20;99.90;;;;;;2631748;39;20601;-80
2022/11/13 06:52:57;;;;;;;;;;;6.00;99.90;;;;;;2629763;47;19933;-79
2022/11/13 06:55:30;;;;;;;;;;;6.10;99.90;;;;;;2629840;54;19927;-81
2022/11/13 06:58:00;;;;;;;;;;;6.00;99.90;;;;;;2629576;47;19943;-78
2022/11/13 07:00:30;;;;;;;;;;;6.00;99.90;;;;;;2629714;54;19942;-78
2022/11/13 07:03:06;;;;;;;;;;;6.10;99.90;;;;;;2629498;47;19956;-78
2022/11/13 07:05:37;;;;;;;;;;;7.30;99.90;;;;;;2631158;39;20823;-78
2022/11/13 07:08:07;;;;;;;;;;;6.10;99.90;;;;;;2629600;47;19951;-79
2022/11/13 07:10:39;;;;;;;;;;;6.50;99.90;;;;;;2630089;47;20660;-78
2022/11/13 07:13:09;;;;;;;;;;;6.30;99.90;;;;;;2630544;47;19943;-78
2022/11/13 07:15:40;;;;;;;;;;;6.50;99.90;;;;;;2630383;47;20053;-79
2022/11/13 07:18:09;;;;;;;;;;;5.90;99.90;;;;;;2631292;54;19931;-78
2022/11/13 07:20:39;;;;;;;;;;;6.30;99.90;;;;;;2631172;54;19951;-79
2022/11/13 07:23:09;;;;;;;;;;;6.00;99.90;;;;;;2630880;47;19950;-77
2022/11/13 07:25:41;;;;;;;;;;;6.00;99.90;;;;;;2630923;47;19943;-80
2022/11/13 07:28:11;;;;;;;;;;;6.00;99.90;;;;;;2631193;46;19943;-83
2022/11/13 07:30:41;;;;;;;;;;;6.00;99.90;;;;;;2631198;46;19973;-84
2022/11/13 07:33:10;;;;;;;;;;;6.00;99.90;;;;;;2631055;47;19990;-82
2022/11/13 07:35:40;;;;;;;;;;;6.70;99.90;;;;;;2630133;47;19983;-82
2022/11/13 07:38:10;;;;;;;;;;;5.90;99.90;;;;;;2630463;47;19941;-84
2022/11/13 07:40:42;;;;;;;;;;;5.90;99.90;;;;;;2630206;54;19933;-81
2022/11/13 07:43:12;;;;;;;;;;;6.40;99.90;;;;;;2629902;46;19939;-82
2022/11/13 07:45:42;;;;;;;;;;;6.00;99.90;;;;;;2628469;46;19948;-79
2022/11/13 07:48:12;;;;;;;;;;;5.90;99.90;;;;;;2629638;47;19953;-80
2022/11/13 07:50:42;;;;;;;;;;;6.00;99.90;;;;;;2627455;54;19958;-79
2022/11/13 07:53:11;;;;;;;;;;;6.50;99.90;;;;;;2627700;47;19947;-77
2022/11/13 07:55:44;;;;;;;;;;;5.90;99.90;;;;;;2628863;46;20449;-78
2022/11/13 07:58:13;;;;;;;;;;;5.90;99.90;;;;;;2631901;47;19923;-81
2022/11/13 08:00:43;;;;;;;;;;;6.10;99.90;;;;;;2632022;54;19954;-79
2022/11/13 08:03:14;;;;;;;;;;;6.00;99.90;;;;;;2631138;47;20003;-77
2022/11/13 08:05:45;;;;;;;;;;;6.00;99.90;;;;;;2625519;47;19942;-83
2022/11/13 08:08:15;;;;;;;;;;;6.00;99.90;;;;;;2629833;47;20624;-78
2022/11/13 08:10:47;;;;;;;;;;;6.00;99.90;;;;;;2629536;46;19986;-78
2022/11/13 08:13:17;;;;;;;;;;;6.10;99.90;;;;;;2631179;47;19933;-79
2022/11/13 08:15:47;;;;;;;;;;;6.10;99.90;;;;;;2631545;39;20248;-77
2022/11/13 08:18:16;;;;;;;;;;;6.10;99.90;;;;;;2624728;47;19943;-77
2022/11/13 08:20:46;;;;;;;;;;;6.10;99.90;;;;;;2624109;54;20489;-76
2022/11/13 08:23:16;;;;;;;;;;;6.20;99.90;;;;;;2625954;47;19952;-77
2022/11/13 08:25:48;;;;;;;;;;;6.30;99.90;;;;;;2625161;47;19950;-78
2022/11/13 08:28:17;;;;;;;;;;;6.40;99.90;;;;;;2625724;47;19958;-78
2022/11/13 08:30:47;;;;;;;;;;;6.50;99.90;;;;;;2627385;47;19950;-77
2022/11/13 08:33:17;;;;;;;;;;;6.50;99.90;;;;;;2628937;54;19942;-77
2022/11/13 08:35:53;;;;;;;;;;;6.50;99.90;;;;;;2627871;47;19958;-77
2022/11/13 08:38:23;;;;;;;;;;;6.50;99.90;;;;;;2625770;47;19953;-77
2022/11/13 08:40:57;;;;;;;;;;;6.50;99.90;;;;;;2626736;39;20281;-79
2022/11/13 08:43:30;;;;;;;;;;;6.60;99.90;;;;;;2625438;47;19938;-79
2022/11/13 08:46:00;;;;;;;;;;;6.60;99.90;;;;;;2625456;54;19953;-78
2022/11/13 08:48:29;;;;;;;;;;;6.60;99.90;;;;;;2626997;54;19939;-77
2022/11/13 08:51:00;;;;;;;;;;;6.60;99.90;;;;;;2626585;54;19958;-78
2022/11/13 08:53:30;;;;;;;;;;;6.60;99.90;;;;;;2626855;54;19938;-78
2022/11/13 08:56:04;;;;;;;;;;;6.70;99.90;;;;;;2628306;54;19953;-78
2022/11/13 08:58:34;;;;;;;;;;;6.70;99.90;;;;;;2627692;54;19946;-80
2022/11/13 09:01:04;;;;;;;;;;;6.70;99.90;;;;;;2628770;47;20038;-79
2022/11/13 09:03:34;;;;;;;;;;;6.70;99.90;;;;;;2628131;54;19947;-80
2022/11/13 09:06:06;;;;;;;;;;;6.80;99.90;;;;;;2626250;47;19947;-79
2022/11/13 09:08:36;;;;;;;;;;;6.80;99.90;;;;;;2625794;47;19947;-80
2022/11/13 09:11:08;;;;;;;;;;;6.90;99.90;;;;;;2625625;47;19946;-79
2022/11/13 09:13:48;;;;;;;;;;;6.90;99.90;;;;;;2627505;46;20182;-80
2022/11/13 09:16:26;;;;;;;;;;;7.00;99.90;;;;;;2618020;46;19951;-71
2022/11/13 09:18:56;;;;;;;;;;;7.20;99.90;;;;;;2613708;47;19953;-70
2022/11/13 09:21:25;;;;;;;;;;;7.10;99.90;;;;;;2615812;54;19954;-72
2022/11/13 09:23:55;;;;;;;;;;;7.20;99.90;;;;;;2616947;54;19945;-73
2022/11/13 09:26:29;;;;;;;;;;;7.20;99.90;;;;;;2616742;54;19969;-71
2022/11/13 09:28:59;;;;;;;;;;;7.30;99.90;;;;;;2618310;47;19954;-74
2022/11/13 09:31:29;;;;;;;;;;;7.30;99.90;;;;;;2617048;47;19947;-77
2022/11/13 09:34:03;;;;;;;;;;;7.30;99.90;;;;;;2618716;39;20408;-75
2022/11/13 09:36:33;;;;;;;;;;;7.40;99.90;;;;;;2618242;47;19946;-73
2022/11/13 09:39:03;;;;;;;;;;;7.40;99.90;;;;;;2618012;54;20053;-74
2022/11/13 09:41:38;;;;;;;;;;;7.50;99.90;;;;;;2619857;54;20058;-75
2022/11/13 09:44:08;;;;;;;;;;;7.50;99.90;;;;;;2618812;47;19946;-75
2022/11/13 09:46:40;;;;;;;;;;;7.60;99.90;;;;;;2617424;54;19946;-73
2022/11/13 09:49:15;;;;;;;;;;;7.60;99.90;;;;;;2618252;47;19947;-75
2022/11/13 09:51:48;;;;;;;;;;;7.70;99.90;;;;;;2618057;54;20449;-73
2022/11/13 09:54:19;;;;;;;;;;;7.80;99.90;;;;;;2618083;47;19953;-74
2022/11/13 09:56:54;;;;;;;;;;;7.80;99.90;;;;;;2618614;54;20054;-74
2022/11/13 09:59:28;;;;;;;;;;;7.80;99.90;;;;;;2617161;54;19953;-73
2022/11/13 10:02:01;;;;;;;;;;;7.80;99.90;;;;;;2616723;52;19954;-75
2022/11/13 10:04:36;;;;;;;;;;;7.80;99.90;;;;;;2616707;39;20373;-75
2022/11/13 10:07:12;;;;;;;;;;;7.70;99.90;;;;;;2621064;54;19954;-75
2022/11/13 10:09:48;;;;;;;;;;;7.80;99.90;;;;;;2622333;47;19947;-72
2022/11/13 10:12:20;;;;;;;;;;;7.80;99.90;;;;;;2619170;54;19990;-72
2022/11/13 10:14:51;;;;;;;;;;;7.90;99.90;;;;;;2616714;54;19955;-70
2022/11/13 10:17:24;;;;;;;;;;;8.00;99.90;;;;;;2615054;54;20002;-72
2022/11/13 10:19:56;;;;;;;;;;;8.10;99.90;;;;;;2617421;39;20108;-71
2022/11/13 10:22:30;;;;;;;;;;;8.20;99.90;;;;;;2616800;54;19946;-72
2022/11/13 10:25:06;;;;;;;;;;;8.30;99.90;;;;;;2618885;54;19958;-72
2022/11/13 10:27:38;;;;;;;;;;;8.40;99.90;;;;;;2618025;47;19954;-71
2022/11/13 10:30:14;;;;;;;;;;;8.60;99.90;;;;;;2616527;54;20512;-72
2022/11/13 10:32:44;;;;;;;;;;;8.70;99.90;;;;;;2615903;39;20451;-71
2022/11/13 10:35:35;;;;;;;;;;;8.80;99.90;;;;;;2615368;47;20579;-74
2022/11/13 10:38:05;;;;;;;;;;;9.00;99.90;;;;;;2615765;54;19954;-74
2022/11/13 10:40:41;;;;;;;;;;;9.20;99.90;;;;;;2615460;39;20446;-75
2022/11/13 10:43:16;;;;;;;;;;;9.30;99.90;;;;;;2617800;47;20461;-75
2022/11/13 10:45:55;;;;;;;;;;;9.50;99.90;;;;;;2617781;54;20457;-76
2022/11/13 10:48:30;;;;;;;;;;;9.70;99.90;;;;;;2619417;54;19946;-73
2022/11/13 10:51:23;;;;;;;;;;;9.80;99.90;;;;;;2617960;46;19950;-74
2022/11/13 10:53:53;;;;;;;;;;;9.90;99.90;;;;;;2618622;39;20502;-75
2022/11/13 10:56:24;;;;;;;;;;;10.10;99.90;;;;;;2618148;47;19947;-77
2022/11/13 10:59:11;;;;;;;;;;;10.20;99.90;;;;;;2617661;47;19959;-74
2022/11/13 11:01:41;;;;;;;;;;;10.30;99.90;;;;;;2617462;47;19947;-75
2022/11/13 11:04:14;;;;;;;;;;;10.40;99.90;;;;;;2617172;39;20393;-75
2022/11/13 11:06:43;;;;;;;;;;;10.50;99.90;;;;;;2618467;54;19938;-74
2022/11/13 11:09:33;;;;;;;;;;;10.60;99.90;;;;;;2618948;54;19946;-74
2022/11/13 11:12:21;;;;;;;;;;;10.60;99.90;;;;;;2624617;54;19953;-77
2022/11/13 11:15:04;;;;;;;;;;;10.70;99.90;;;;;;2621463;47;19947;-74
2022/11/13 11:17:37;;;;;;;;;;;10.70;99.90;;;;;;2617915;54;20036;-76
2022/11/13 11:20:08;;;;;;;;;;;10.80;99.90;;;;;;2619587;54;19947;-75
2022/11/13 11:22:39;;;;;;;;;;;10.80;99.90;;;;;;2621247;54;19946;-75
2022/11/13 11:25:13;;;;;;;;;;;10.80;99.90;;;;;;2620149;54;19954;-75
2022/11/13 11:27:46;;;;;;;;;;;10.90;99.90;;;;;;2618123;54;19946;-76
2022/11/13 11:30:21;;;;;;;;;;;10.90;99.90;;;;;;2619279;54;19954;-75
2022/11/13 11:32:53;;;;;;;;;;;11.00;99.90;;;;;;2619927;46;19947;-74
2022/11/13 11:35:24;;;;;;;;;;;11.00;99.90;;;;;;2619679;47;19991;-74
2022/11/13 11:37:57;;;;;;;;;;;11.00;99.90;;;;;;2620071;54;19997;-76
2022/11/13 11:40:29;;;;;;;;;;;11.20;99.90;;;;;;2619350;49;19942;-74
2022/11/13 11:43:03;;;;;;;;;;;11.20;99.90;;;;;;2621189;47;19946;-76
2022/11/13 11:45:37;;;;;;;;;;;11.20;99.90;;;;;;2619889;47;19951;-74
2022/11/13 11:48:11;;;;;;;;;;;11.30;99.90;;;;;;2619928;47;20454;-74
2022/11/13 11:50:45;;;;;;;;;;;11.40;99.90;;;;;;2619921;47;19954;-74
2022/11/13 11:53:16;;;;;;;;;;;11.50;99.90;;;;;;2618924;54;19954;-76
2022/11/13 11:55:52;;;;;;;;;;;11.50;99.90;;;;;;2622734;54;19954;-77
2022/11/13 11:58:26;;;;;;;;;;;11.60;99.90;;;;;;2620554;47;20488;-66
2022/11/13 12:01:02;;;;;;;;;;;11.70;99.90;;;;;;2617881;54;19997;-66
2022/11/13 12:03:51;;;;;;;;;;;11.80;99.90;;;;;;2621929;54;19947;-67
2022/11/13 12:06:25;;;;;;;;;;;11.80;99.90;;;;;;2623054;54;20477;-66
2022/11/13 12:08:58;;;;;;;;;;;11.80;99.90;;;;;;2617507;54;20568;-66
2022/11/13 12:11:31;;;;;;;;;;;11.70;99.90;;;;;;2617705;54;19994;-66
2022/11/13 12:14:04;;;;;;;;;;;11.70;99.90;;;;;;2616654;47;19938;-66
2022/11/13 12:16:42;;;;;;;;;;;11.60;99.90;;;;;;2616825;54;19950;-65
2022/11/13 12:19:15;;;;;;;;;;;11.60;99.90;;;;;;2618599;54;19979;-65
2022/11/13 12:21:50;;;;;;;;;;;11.50;99.90;;;;;;2617699;54;19950;-65
2022/11/13 12:24:30;;;;;;;;;;;11.40;99.90;;;;;;2619351;54;19951;-77
2022/11/13 12:27:06;;;;;;;;;;;11.40;99.90;;;;;;2621595;47;19989;-77
2022/11/13 12:29:42;;;;;;;;;;;11.40;99.90;;;;;;2620333;47;19938;-77
2022/11/13 12:32:20;;;;;;;;;;;11.30;99.90;;;;;;2620862;47;19950;-76
2022/11/13 12:34:53;;;;;;;;;;;11.30;99.90;;;;;;2619828;54;19991;-75
2022/11/13 12:37:25;;;;;;;;;;;11.30;99.90;;;;;;2619259;54;19985;-73
2022/11/13 12:39:57;;;;;;;;;;;11.30;99.90;;;;;;2619124;47;19950;-73
2022/11/13 12:42:33;;;;;;;;;;;11.30;99.90;;;;;;2618169;47;19946;-73
2022/11/13 12:45:08;;;;;;;;;;;11.20;99.90;;;;;;2622965;54;19947;-73
2022/11/13 12:47:42;;;;;;;;;;;11.20;99.90;;;;;;2626803;54;19951;-77
2022/11/13 12:50:23;;;;;;;;;;;11.20;99.90;;;;;;2626985;47;19947;-75
2022/11/13 12:53:01;;;;;;;;;;;11.20;99.90;;;;;;2623572;39;20513;-76
2022/11/13 12:55:31;;;;;;;;;;;11.20;99.90;;;;;;2626926;54;19947;-77
2022/11/13 12:58:06;;;;;;;;;;;11.20;99.90;;;;;;2624352;54;19993;-76
2022/11/13 13:00:37;;;;;;;;;;;11.20;99.90;;;;;;2621365;47;19954;-76
2022/11/13 13:03:20;;;;;;;;;;;11.20;99.90;;;;;;2622071;47;19954;-76
2022/11/13 13:06:08;;;;;;;;;;;11.20;99.90;;;;;;2622024;54;20475;-73
2022/11/13 13:08:46;;;;;;;;;;;11.30;99.90;;;;;;2620758;47;19951;-73
2022/11/13 13:11:19;;;;;;;;;;;11.40;99.90;;;;;;2621078;39;20373;-73
2022/11/13 13:13:52;;;;;;;;;;;11.40;99.90;;;;;;2621537;54;19998;-73
2022/11/13 13:16:23;;;;;;;;;;;11.50;99.90;;;;;;2622515;54;19946;-77
2022/11/13 13:19:07;;;;;;;;;;;11.50;99.90;;;;;;2623521;54;19947;-78
2022/11/13 13:21:43;;;;;;;;;;;11.60;99.90;;;;;;2623917;47;19971;-77
2022/11/13 13:24:28;;;;;;;;;;;11.60;99.90;;;;;;2622468;39;20385;-77
2022/11/13 13:26:58;;;;;;;;;;;11.60;99.90;;;;;;2620876;47;19942;-76
2022/11/13 13:29:28;;;;;;;;;;;11.70;99.90;;;;;;2620383;46;19953;-73
2022/11/13 13:32:03;;;;;;;;;;;11.70;99.90;;;;;;2623869;47;19946;-72
2022/11/13 13:34:47;;;;;;;;;;;11.80;99.90;;;;;;2621741;51;19946;-73
2022/11/13 13:37:27;;;;;;;;;;;11.80;99.90;;;;;;2618180;54;20035;-73
2022/11/13 13:40:02;;;;;;;;;;;11.80;99.90;;;;;;2618469;54;20035;-73
2022/11/13 13:42:42;;;;;;;;;;;11.80;99.90;;;;;;2617244;54;19983;-74
2022/11/13 13:45:27;;;;;;;;;;;11.80;99.90;;;;;;2617681;54;19954;-74
2022/11/13 13:47:58;;;;;;;;;;;11.80;99.90;;;;;;2617539;54;19951;-74
2022/11/13 13:50:32;;;;;;;;;;;11.90;99.90;;;;;;2616480;47;19994;-74
2022/11/13 13:53:02;;;;;;;;;;;11.90;99.90;;;;;;2618485;54;19998;-74
2022/11/13 13:55:33;;;;;;;;;;;11.90;99.90;;;;;;2620076;47;19950;-73
2022/11/13 13:58:04;;;;;;;;;;;11.90;99.90;;;;;;2618110;54;19986;-73
2022/11/13 14:00:34;;;;;;;;;;;12.00;99.90;;;;;;2617961;47;20042;-73
2022/11/13 14:03:23;;;;;;;;;;;12.00;99.90;;;;;;2616888;54;19985;-73
2022/11/13 14:05:56;;;;;;;;;;;12.00;99.90;;;;;;2620159;54;19974;-74
2022/11/13 14:08:32;;;;;;;;;;;12.10;99.90;;;;;;2619547;54;19951;-74
2022/11/13 14:11:04;;;;;;;;;;;12.10;99.90;;;;;;2617365;39;20347;-74
2022/11/13 14:13:36;;;;;;;;;;;12.10;99.90;;;;;;2616317;54;19973;-73
2022/11/13 14:16:07;;;;;;;;;;;12.10;99.90;;;;;;2617998;54;20473;-73
2022/11/13 14:18:37;;;;;;;;;;;12.10;99.90;;;;;;2618060;54;19998;-72
2022/11/13 14:21:14;;;;;;;;;;;12.00;99.90;;;;;;2617553;39;20381;-72
2022/11/13 14:23:45;;;;;;;;;;;12.00;99.90;;;;;;2618265;47;19946;-73
2022/11/13 14:26:15;;;;;;;;;;;12.00;99.90;;;;;;2618080;47;20062;-73
2022/11/13 14:28:47;;;;;;;;;;;12.00;99.90;;;;;;2618598;54;20060;-73
2022/11/13 14:31:28;;;;;;;;;;;12.00;99.90;;;;;;2617698;54;19950;-73
2022/11/13 14:33:58;;;;;;;;;;;12.00;99.90;;;;;;2617264;54;19953;-73
2022/11/13 14:36:32;;;;;;;;;;;12.00;99.90;;;;;;2617480;54;19967;-73
2022/11/13 14:39:02;;;;;;;;;;;12.00;99.90;;;;;;2617772;47;19947;-73
2022/11/13 14:41:34;;;;;;;;;;;12.10;99.90;;;;;;2618566;54;19947;-74
2022/11/13 14:44:04;;;;;;;;;;;12.00;99.90;;;;;;2618982;54;19946;-74
2022/11/13 14:46:36;;;;;;;;;;;12.00;99.90;;;;;;2622549;54;19939;-73
2022/11/13 14:49:06;;;;;;;;;;;12.00;99.90;;;;;;2621938;54;19942;-73
2022/11/13 14:51:38;;;;;;;;;;;12.00;99.90;;;;;;2621014;54;19939;-73
2022/11/13 14:54:08;;;;;;;;;;;12.00;99.90;;;;;;2619277;54;20439;-73
2022/11/13 14:56:39;;;;;;;;;;;11.90;99.90;;;;;;2617299;47;19939;-74
2022/11/13 14:59:10;;;;;;;;;;;11.90;99.90;;;;;;2617681;54;19961;-74
2022/11/13 15:01:55;;;;;;;;;;;11.90;99.90;;;;;;2618772;54;19939;-74
2022/11/13 15:04:24;;;;;;;;;;;11.90;99.90;;;;;;2618890;47;19939;-73
2022/11/13 15:06:58;;;;;;;;;;;11.80;99.90;;;;;;2618556;54;19946;-74
2022/11/13 15:09:29;;;;;;;;;;;11.80;99.90;;;;;;2618157;39;20352;-74
2022/11/13 15:11:58;;;;;;;;;;;11.80;99.90;;;;;;2617748;47;19950;-74
2022/11/13 15:14:28;;;;;;;;;;;11.80;99.90;;;;;;2617724;54;19965;-73
2022/11/13 15:16:57;;;;;;;;;;;11.80;99.90;;;;;;2619275;54;20453;-75
2022/11/13 15:19:33;;;;;;;;;;;11.70;99.90;;;;;;2617322;47;19946;-73
2022/11/13 15:22:05;;;;;;;;;;;11.00;99.90;;;;;;2617023;54;19950;-73
2022/11/13 15:24:55;;;;;;;;;;;11.50;99.90;;;;;;2617784;47;19974;-73
2022/11/13 15:27:24;;;;;;;;;;;11.50;99.90;;;;;;2617668;54;19943;-73
2022/11/13 15:29:54;;;;;;;;;;;11.40;99.90;;;;;;2617679;54;20002;-72
2022/11/13 15:32:27;;;;;;;;;;;11.40;99.90;;;;;;2618157;54;19946;-70
2022/11/13 15:34:57;;;;;;;;;;;11.30;99.90;;;;;;2617787;47;20460;-71
2022/11/13 15:37:29;;;;;;;;;;;11.20;99.90;;;;;;2617920;51;19965;-71
2022/11/13 15:39:59;;;;;;;;;;;11.20;99.90;;;;;;2619046;47;20042;-72
2022/11/13 15:42:30;;;;;;;;;;;11.20;99.90;;;;;;2619456;54;19946;-73
2022/11/13 15:45:00;;;;;;;;;;;11.10;99.90;;;;;;2619163;47;19947;-74
2022/11/13 15:47:31;;;;;;;;;;;11.10;99.90;;;;;;2618674;47;19954;-73
2022/11/13 15:50:00;;;;;;;;;;;11.10;99.90;;;;;;2618539;54;19973;-73
2022/11/13 15:52:46;;;;;;;;;;;11.00;99.90;;;;;;2618108;54;19946;-72
2022/11/13 15:55:20;;;;;;;;;;;11.00;99.90;;;;;;2617862;47;19946;-73
2022/11/13 15:57:50;;;;;;;;;;;11.00;99.90;;;;;;2618254;54;19950;-73
2022/11/13 16:00:23;;;;;;;;;;;10.90;99.90;;;;;;2619538;54;19950;-72
2022/11/13 16:02:54;;;;;;;;;;;10.90;99.90;;;;;;2621870;54;19954;-72
2022/11/13 16:05:25;;;;;;;;;;;10.80;99.90;;;;;;2622828;47;19946;-74
2022/11/13 16:07:57;;;;;;;;;;;10.80;99.90;;;;;;2620003;54;19953;-73
2022/11/13 16:10:27;;;;;;;;;;;10.70;99.90;;;;;;2618981;39;20460;-72
2022/11/13 16:12:56;;;;;;;;;;;10.70;99.90;;;;;;2618623;54;19946;-73
2022/11/13 16:15:26;;;;;;;;;;;10.60;99.90;;;;;;2618415;54;19946;-72
2022/11/13 16:17:57;;;;;;;;;;;10.60;99.90;;;;;;2618343;47;19947;-72
2022/11/13 16:20:26;;;;;;;;;;;10.60;99.90;;;;;;2618511;54;19954;-72
2022/11/13 16:22:58;;;;;;;;;;;10.50;99.90;;;;;;2617635;47;19943;-72
2022/11/13 16:25:28;;;;;;;;;;;10.40;99.90;;;;;;2617772;47;19955;-70
2022/11/13 16:27:58;;;;;;;;;;;10.30;99.90;;;;;;2617503;47;20567;-70
2022/11/13 16:30:30;;;;;;;;;;;10.20;99.90;;;;;;2617637;54;19947;-72
2022/11/13 16:33:04;;;;;;;;;;;10.20;99.90;;;;;;2621453;47;19947;-71
2022/11/13 16:35:34;;;;;;;;;;;10.10;99.90;;;;;;2620379;39;20342;-73
2022/11/13 16:38:11;;;;;;;;;;;10.00;99.90;;;;;;2619553;51;19953;-72
2022/11/13 16:40:42;;;;;;;;;;;10.00;99.90;;;;;;2618081;54;19950;-74
2022/11/13 16:43:11;;;;;;;;;;;10.00;99.90;;;;;;2618697;39;20382;-73
2022/11/13 16:45:41;;;;;;;;;;;9.90;99.90;;;;;;2617966;39;20428;-73
2022/11/13 16:48:13;;;;;;;;;;;9.90;99.90;;;;;;2618462;39;20338;-72
2022/11/13 16:50:44;;;;;;;;;;;9.80;99.90;;;;;;2618342;47;19947;-73
2022/11/13 16:53:16;;;;;;;;;;;9.80;99.90;;;;;;2618808;39;20357;-73
2022/11/13 16:55:45;;;;;;;;;;;9.70;99.90;;;;;;2618596;54;19946;-73
2022/11/13 16:58:15;;;;;;;;;;;9.70;99.90;;;;;;2618193;51;20477;-73
2022/11/13 17:00:45;;;;;;;;;;;9.60;99.90;;;;;;2618044;54;19956;-73
2022/11/13 17:03:14;;;;;;;;;;;9.60;99.90;;;;;;2622862;51;19939;-72
2022/11/13 17:05:44;;;;;;;;;;;9.60;99.90;;;;;;2619030;54;19947;-73
2022/11/13 17:08:16;;;;;;;;;;;9.50;99.90;;;;;;2620949;47;19958;-73
2022/11/13 17:10:46;;;;;;;;;;;9.50;99.90;;;;;;2623177;47;19947;-73
2022/11/13 17:13:15;;;;;;;;;;;9.50;99.90;;;;;;2625267;39;20221;-73
2022/11/13 17:15:45;;;;;;;;;;;9.50;99.90;;;;;;2621730;47;19953;-73
2022/11/13 17:18:15;;;;;;;;;;;9.50;99.90;;;;;;2624539;54;19954;-69
2022/11/13 17:20:44;;;;;;;;;;;9.50;99.90;;;;;;2627542;53;19970;-69
2022/11/13 17:23:17;;;;;;;;;;;9.40;99.90;;;;;;2628167;47;19950;-69
2022/11/13 17:25:47;;;;;;;;;;;9.40;99.90;;;;;;2628294;54;19946;-71
2022/11/13 17:28:17;;;;;;;;;;;9.30;99.90;;;;;;2628498;47;19949;-70
2022/11/13 17:30:47;;;;;;;;;;;9.30;99.90;;;;;;2627949;54;19957;-70
2022/11/13 17:33:17;;;;;;;;;;;9.20;99.90;;;;;;2624626;54;19946;-70
2022/11/13 17:35:46;;;;;;;;;;;9.30;99.90;;;;;;2624097;47;19954;-70